createdAt,value
2023-04-10T00:00:57.013Z,101679.00
2023-04-10T00:03:25.136Z,101663.00
2023-04-10T00:05:54.703Z,101675.00
2023-04-10T00:08:24.537Z,101673.00
2023-04-10T00:10:53.191Z,101673.00
2023-04-10T00:13:21.332Z,101678.00
2023-04-10T00:15:49.592Z,101674.00
2023-04-10T00:18:17.343Z,101672.00
2023-04-10T00:20:45.083Z,101674.00
2023-04-10T00:23:12.805Z,101673.00
2023-04-10T00:25:41.859Z,101677.00
2023-04-10T00:28:09.582Z,101673.00
2023-04-10T00:30:37.343Z,101659.00
2023-04-10T00:33:05.697Z,101661.00
2023-04-10T00:35:33.492Z,101649.00
2023-04-10T00:38:01.295Z,101653.00
2023-04-10T00:40:30.297Z,101645.00
2023-04-10T00:42:59.442Z,101642.00
2023-04-10T00:45:27.818Z,101641.00
2023-04-10T00:47:56.729Z,101628.00
2023-04-10T00:50:25.598Z,101628.00
2023-04-10T00:52:53.794Z,101621.00
2023-04-10T00:55:21.692Z,101617.00
2023-04-10T00:57:49.447Z,101620.00
2023-04-10T01:00:19.174Z,101607.00
2023-04-10T01:02:47.000Z,101623.00
2023-04-10T01:05:15.414Z,101624.00
2023-04-10T01:07:55.078Z,101624.00
2023-04-10T01:10:30.670Z,101628.00
2023-04-10T01:13:07.731Z,101644.00
2023-04-10T01:15:45.019Z,101642.00
2023-04-10T01:18:19.647Z,101634.00
2023-04-10T01:20:47.406Z,101639.00
2023-04-10T01:23:45.120Z,101644.00
2023-04-10T01:26:17.256Z,101648.00
2023-04-10T01:28:54.118Z,101648.00
2023-04-10T01:34:01.118Z,101637.00
2023-04-10T01:36:33.104Z,101647.00
2023-04-10T01:39:02.356Z,101640.00
2023-04-10T01:41:31.718Z,101648.00
2023-04-10T01:44:03.697Z,101641.00
2023-04-10T01:46:32.851Z,101659.00
2023-04-10T01:49:03.168Z,101646.00
2023-04-10T01:51:33.464Z,101645.00
2023-04-10T01:54:04.642Z,101643.00
2023-04-10T01:56:34.829Z,101631.00
2023-04-10T01:59:05.504Z,101624.00
2023-04-10T02:01:33.400Z,101628.00
2023-04-10T02:04:01.340Z,101629.00
2023-04-10T02:06:38.785Z,101621.00
2023-04-10T02:09:13.046Z,101631.00
2023-04-10T02:11:45.595Z,101626.00
2023-04-10T02:14:18.168Z,101619.00
2023-04-10T02:16:46.760Z,101614.00
2023-04-10T02:19:15.414Z,101613.00
2023-04-10T02:21:43.833Z,101600.00
2023-04-10T02:24:11.582Z,101621.00
2023-04-10T02:26:46.925Z,101595.00
2023-04-10T02:29:16.116Z,101606.00
2023-04-10T02:31:44.472Z,101603.00
2023-04-10T02:34:12.750Z,101598.00
2023-04-10T02:36:41.052Z,101601.00
2023-04-10T02:39:09.177Z,101595.00
2023-04-10T02:41:36.864Z,101592.00
2023-04-10T02:44:04.954Z,101585.00
2023-04-10T02:46:34.116Z,101576.00
2023-04-10T02:49:02.645Z,101588.00
2023-04-10T02:51:30.905Z,101592.00
2023-04-10T02:53:58.568Z,101595.00
2023-04-10T02:56:27.183Z,101591.00
2023-04-10T02:58:54.879Z,101587.00
2023-04-10T03:01:23.418Z,101576.00
2023-04-10T03:03:52.867Z,101578.00
2023-04-10T03:06:20.927Z,101576.00
2023-04-10T03:08:48.640Z,101583.00
2023-04-10T03:11:16.326Z,101578.00
2023-04-10T03:13:43.995Z,101573.00
2023-04-10T03:16:11.751Z,101571.00
2023-04-10T03:18:39.529Z,101578.00
2023-04-10T03:21:09.028Z,101566.00
2023-04-10T03:23:36.766Z,101576.00
2023-04-10T03:26:05.230Z,101557.00
2023-04-10T03:28:33.655Z,101556.00
2023-04-10T03:31:03.383Z,101553.00
2023-04-10T03:33:31.166Z,101562.00
2023-04-10T03:35:59.012Z,101552.00
2023-04-10T03:38:28.099Z,101549.00
2023-04-10T03:40:55.750Z,101543.00
2023-04-10T03:43:23.441Z,101540.00
2023-04-10T03:45:51.126Z,101530.00
2023-04-10T03:48:18.849Z,101545.00
2023-04-10T03:50:46.636Z,101547.00
2023-04-10T03:53:14.327Z,101549.00
2023-04-10T03:55:43.422Z,101555.00
2023-04-10T03:58:11.077Z,101553.00
2023-04-10T04:00:39.058Z,101548.00
2023-04-10T04:03:07.005Z,101545.00
2023-04-10T04:05:34.950Z,101551.00
2023-04-10T04:08:03.790Z,101555.00
2023-04-10T04:10:31.534Z,101549.00
2023-04-10T04:13:00.626Z,101525.00
2023-04-10T04:15:28.465Z,101554.00
2023-04-10T04:17:56.211Z,101537.00
2023-04-10T04:20:24.010Z,101545.00
2023-04-10T04:22:51.732Z,101543.00
2023-04-10T04:25:20.069Z,101543.00
2023-04-10T04:27:47.752Z,101536.00
2023-04-10T04:30:16.855Z,101545.00
2023-04-10T04:32:44.687Z,101534.00
2023-04-10T04:35:12.494Z,101539.00
2023-04-10T04:37:40.764Z,101552.00
2023-04-10T04:40:09.353Z,101542.00
2023-04-10T04:42:37.343Z,101540.00
2023-04-10T04:45:05.744Z,101546.00
2023-04-10T04:47:34.808Z,101553.00
2023-04-10T04:50:02.598Z,101539.00
2023-04-10T04:52:30.249Z,101538.00
2023-04-10T04:54:58.022Z,101552.00
2023-04-10T04:57:25.687Z,101530.00
2023-04-10T04:59:53.476Z,101540.00
2023-04-10T05:02:22.757Z,101546.00
2023-04-10T05:04:52.109Z,101547.00
2023-04-10T05:07:19.768Z,101540.00
2023-04-10T05:09:47.462Z,101550.00
2023-04-10T05:12:15.493Z,101545.00
2023-04-10T05:14:43.206Z,101544.00
2023-04-10T05:17:11.238Z,101549.00
2023-04-10T05:19:39.047Z,101550.00
2023-04-10T05:22:08.105Z,101541.00
2023-04-10T05:24:35.789Z,101547.00
2023-04-10T05:27:03.544Z,101546.00
2023-04-10T05:29:31.301Z,101544.00
2023-04-10T05:31:59.012Z,101545.00
2023-04-10T05:34:26.766Z,101541.00
2023-04-10T05:36:56.203Z,101539.00
2023-04-10T05:39:26.727Z,101545.00
2023-04-10T05:41:54.554Z,101541.00
2023-04-10T05:44:22.321Z,101546.00
2023-04-10T05:46:50.146Z,101540.00
2023-04-10T05:49:17.889Z,101543.00
2023-04-10T05:51:50.105Z,101542.00
2023-04-10T05:54:17.920Z,101551.00
2023-04-10T05:56:46.980Z,101551.00
2023-04-10T05:59:14.667Z,101552.00
2023-04-10T06:01:42.819Z,101550.00
2023-04-10T06:04:10.577Z,101548.00
2023-04-10T06:06:38.500Z,101546.00
2023-04-10T06:09:06.390Z,101552.00
2023-04-10T06:11:34.113Z,101549.00
2023-04-10T06:14:03.443Z,101558.00
2023-04-10T06:16:31.554Z,101561.00
2023-04-10T06:18:59.408Z,101546.00
2023-04-10T06:21:27.172Z,101543.00
2023-04-10T06:23:55.177Z,101539.00
2023-04-10T06:26:23.064Z,101535.00
2023-04-10T06:28:50.854Z,101530.00
2023-04-10T06:31:21.925Z,101522.00
2023-04-10T06:33:49.944Z,101518.00
2023-04-10T06:36:17.795Z,101523.00
2023-04-10T06:38:45.652Z,101513.00
2023-04-10T06:41:13.373Z,101527.00
2023-04-10T06:43:41.209Z,101524.00
2023-04-10T06:46:09.011Z,101524.00
2023-04-10T06:48:38.245Z,101516.00
2023-04-10T06:51:06.296Z,101514.00
2023-04-10T06:53:34.095Z,101531.00
2023-04-10T06:56:03.555Z,101523.00
2023-04-10T06:58:32.018Z,101520.00
2023-04-10T07:01:05.018Z,101505.00
2023-04-10T07:03:33.863Z,101514.00
2023-04-10T07:06:03.415Z,101503.00
2023-04-10T07:08:31.414Z,101518.00
2023-04-10T07:10:59.182Z,101501.00
2023-04-10T07:13:26.955Z,101500.00
2023-04-10T07:15:54.806Z,101501.00
2023-04-10T07:18:22.625Z,101481.00
2023-04-10T07:20:52.290Z,101509.00
2023-04-10T07:23:22.573Z,101494.00
2023-04-10T07:25:51.633Z,101489.00
2023-04-10T07:28:19.399Z,101491.00
2023-04-10T07:30:47.145Z,101489.00
2023-04-10T07:33:14.956Z,101482.00
2023-04-10T07:35:42.876Z,101480.00
2023-04-10T07:38:11.963Z,101480.00
2023-04-10T07:40:41.172Z,101483.00
2023-04-10T07:43:08.911Z,101469.00
2023-04-10T07:45:36.695Z,101466.00
2023-04-10T07:48:06.262Z,101462.00
2023-04-10T07:50:33.980Z,101470.00
2023-04-10T07:53:03.610Z,101478.00
2023-04-10T07:55:31.325Z,101471.00
2023-04-10T07:58:00.480Z,101467.00
2023-04-10T08:00:28.248Z,101472.00
2023-04-10T08:02:56.149Z,101468.00
2023-04-10T08:05:24.201Z,101467.00
2023-04-10T08:07:52.144Z,101461.00
2023-04-10T08:10:20.321Z,101453.00
2023-04-10T08:12:48.034Z,101458.00
2023-04-10T08:15:18.479Z,101461.00
2023-04-10T08:17:46.306Z,101449.00
2023-04-10T08:20:14.816Z,101451.00
2023-04-10T08:22:42.587Z,101434.00
2023-04-10T08:25:11.152Z,101436.00
2023-04-10T08:27:38.888Z,101443.00
2023-04-10T08:30:07.575Z,101437.00
2023-04-10T08:32:37.190Z,101433.00
2023-04-10T08:35:05.893Z,101437.00
2023-04-10T08:37:33.667Z,101443.00
2023-04-10T08:40:01.459Z,101431.00
2023-04-10T08:42:29.224Z,101433.00
2023-04-10T08:44:56.978Z,101427.00
2023-04-10T08:47:29.902Z,101431.00
2023-04-10T08:50:03.144Z,101424.00
2023-04-10T08:52:32.242Z,101425.00
2023-04-10T08:55:03.874Z,101415.00
2023-04-10T08:57:31.936Z,101414.00
2023-04-10T09:00:04.039Z,101415.00
2023-04-10T09:02:42.266Z,101415.00
2023-04-10T09:05:13.948Z,101404.00
2023-04-10T09:07:42.050Z,101404.00
2023-04-10T09:10:10.807Z,101403.00
2023-04-10T09:12:45.960Z,101397.00
2023-04-10T09:15:14.005Z,101402.00
2023-04-10T09:17:57.498Z,101396.00
2023-04-10T09:20:27.839Z,101401.00
2023-04-10T09:22:55.852Z,101394.00
2023-04-10T09:25:32.498Z,101383.00
2023-04-10T09:28:05.035Z,101386.00
2023-04-10T09:30:37.267Z,101378.00
2023-04-10T09:33:22.712Z,101368.00
2023-04-10T09:35:52.196Z,101356.00
2023-04-10T09:38:21.643Z,101368.00
2023-04-10T09:40:50.791Z,101343.00
2023-04-10T09:43:23.722Z,101345.00
2023-04-10T09:45:53.303Z,101336.00
2023-04-10T09:48:21.857Z,101325.00
2023-04-10T09:50:51.585Z,101320.00
2023-04-10T09:53:20.630Z,101323.00
2023-04-10T09:55:49.309Z,101316.00
2023-04-10T09:58:18.917Z,101313.00
2023-04-10T10:00:48.021Z,101322.00
2023-04-10T10:03:17.471Z,101301.00
2023-04-10T10:05:46.940Z,101294.00
2023-04-10T10:08:17.186Z,101298.00
2023-04-10T10:10:47.982Z,101285.00
2023-04-10T10:13:18.912Z,101283.00
2023-04-10T10:15:52.663Z,101280.00
2023-04-10T10:18:26.330Z,101289.00
2023-04-10T10:20:54.807Z,101265.00
2023-04-10T10:23:24.767Z,101276.00
2023-04-10T10:25:54.493Z,101276.00
2023-04-10T10:28:22.675Z,101269.00
2023-04-10T10:30:51.315Z,101263.00
2023-04-10T10:33:19.487Z,101263.00
2023-04-10T10:35:47.856Z,101261.00
2023-04-10T10:38:16.644Z,101253.00
2023-04-10T10:40:53.310Z,101247.00
2023-04-10T10:43:26.955Z,101239.00
2023-04-10T10:46:01.804Z,101237.00
2023-04-10T10:48:29.552Z,101229.00
2023-04-10T10:50:58.945Z,101229.00
2023-04-10T10:53:34.521Z,101227.00
2023-04-10T10:56:34.536Z,101212.00
2023-04-10T10:59:03.019Z,101217.00
2023-04-10T11:01:30.826Z,101203.00
2023-04-10T11:04:00.000Z,101202.00
2023-04-10T11:06:51.036Z,101192.00
2023-04-10T11:09:45.894Z,101182.00
2023-04-10T11:12:15.461Z,101191.00
2023-04-10T11:14:44.430Z,101182.00
2023-04-10T11:17:12.568Z,101171.00
2023-04-10T11:20:00.581Z,101158.00
2023-04-10T11:22:28.956Z,101161.00
2023-04-10T11:24:59.116Z,101148.00
2023-04-10T11:27:42.214Z,101145.00
2023-04-10T11:30:33.322Z,101142.00
2023-04-10T11:33:02.165Z,101132.00
2023-04-10T11:35:32.055Z,101123.00
2023-04-10T11:38:10.710Z,101116.00
2023-04-10T11:40:57.348Z,101120.00
2023-04-10T11:43:26.622Z,101123.00
2023-04-10T11:46:01.591Z,101119.00
2023-04-10T11:48:29.694Z,101094.00
2023-04-10T11:50:57.543Z,101102.00
2023-04-10T11:53:26.751Z,101082.00
2023-04-10T11:55:54.483Z,101082.00
2023-04-10T11:58:29.012Z,101081.00
2023-04-10T12:00:58.288Z,101081.00
2023-04-10T12:03:38.065Z,101071.00
2023-04-10T12:06:08.806Z,101074.00
2023-04-10T12:08:38.039Z,101063.00
2023-04-10T12:11:06.113Z,101078.00
2023-04-10T12:13:35.225Z,101075.00
2023-04-10T12:16:05.544Z,101060.00
2023-04-10T12:18:33.757Z,101061.00
2023-04-10T12:21:02.155Z,101051.00
2023-04-10T12:23:32.503Z,101033.00
2023-04-10T12:26:09.514Z,101051.00
2023-04-10T12:28:39.225Z,101032.00
2023-04-10T12:31:07.708Z,101018.00
2023-04-10T12:33:35.612Z,101033.00
2023-04-10T12:36:03.502Z,101023.00
2023-04-10T12:38:39.056Z,101016.00
2023-04-10T12:41:07.754Z,101033.00
2023-04-10T12:43:37.009Z,101019.00
2023-04-10T12:46:07.787Z,101012.00
2023-04-10T12:48:35.808Z,101020.00
2023-04-10T12:51:04.028Z,101022.00
2023-04-10T12:53:31.861Z,101005.00
2023-04-10T12:56:01.658Z,101006.00
2023-04-10T12:58:31.278Z,101006.00
2023-04-10T13:01:00.353Z,101008.00
2023-04-10T13:03:29.740Z,101003.00
2023-04-10T13:05:57.580Z,101006.00
2023-04-10T13:08:25.393Z,101005.00
2023-04-10T13:10:53.187Z,100995.00
2023-04-10T13:13:21.296Z,100998.00
2023-04-10T13:15:50.018Z,100989.00
2023-04-10T13:18:17.702Z,100978.00
2023-04-10T13:20:46.764Z,100974.00
2023-04-10T13:23:14.480Z,100978.00
2023-04-10T13:25:42.955Z,100968.00
2023-04-10T13:28:11.246Z,100955.00
2023-04-10T13:30:40.264Z,100955.00
2023-04-10T13:33:08.669Z,100953.00
2023-04-10T13:35:37.024Z,100947.00
2023-04-10T13:38:06.801Z,100942.00
2023-04-10T13:40:34.560Z,100932.00
2023-04-10T13:43:02.317Z,100931.00
2023-04-10T13:45:30.624Z,100916.00
2023-04-10T13:47:58.342Z,100923.00
2023-04-10T13:50:26.350Z,100921.00
2023-04-10T13:52:54.133Z,100904.00
2023-04-10T13:55:23.166Z,100911.00
2023-04-10T13:57:50.976Z,100903.00
2023-04-10T14:00:19.073Z,100900.00
2023-04-10T14:02:47.083Z,100891.00
2023-04-10T14:05:14.999Z,100882.00
2023-04-10T14:07:42.738Z,100877.00
2023-04-10T14:10:11.578Z,100870.00
2023-04-10T14:12:40.655Z,100862.00
2023-04-10T14:15:09.438Z,100857.00
2023-04-10T14:17:37.123Z,100860.00
2023-04-10T14:20:05.357Z,100851.00
2023-04-10T14:22:33.083Z,100848.00
2023-04-10T14:25:11.870Z,100839.00
2023-04-10T14:27:43.995Z,100832.00
2023-04-10T14:30:12.194Z,100827.00
2023-04-10T14:32:41.055Z,100822.00
2023-04-10T14:35:09.809Z,100820.00
2023-04-10T14:37:37.765Z,100818.00
2023-04-10T14:40:07.033Z,100800.00
2023-04-10T14:42:34.759Z,100795.00
2023-04-10T14:45:05.496Z,100799.00
2023-04-10T14:47:33.401Z,100791.00
2023-04-10T14:50:01.310Z,100784.00
2023-04-10T14:52:28.997Z,100791.00
2023-04-10T14:54:56.725Z,100768.00
2023-04-10T14:57:24.468Z,100765.00
2023-04-10T14:59:52.179Z,100767.00
2023-04-10T15:02:21.531Z,100738.00
2023-04-10T15:04:49.404Z,100723.00
2023-04-10T15:07:17.160Z,100735.00
2023-04-10T15:09:45.220Z,100701.00
2023-04-10T15:12:12.955Z,100728.00
2023-04-10T15:14:40.865Z,100718.00
2023-04-10T15:17:09.102Z,100717.00
2023-04-10T15:19:38.197Z,100708.00
2023-04-10T15:22:05.995Z,100705.00
2023-04-10T15:24:47.113Z,100691.00
2023-04-10T15:27:19.588Z,100698.00
2023-04-10T15:29:47.318Z,100691.00
2023-04-10T15:32:15.025Z,100685.00
2023-04-10T15:34:44.870Z,100679.00
2023-04-10T15:37:12.589Z,100679.00
2023-04-10T15:39:40.708Z,100670.00
2023-04-10T15:42:08.611Z,100657.00
2023-04-10T15:44:36.336Z,100651.00
2023-04-10T15:47:04.050Z,100643.00
2023-04-10T15:49:37.828Z,100645.00
2023-04-10T15:52:08.124Z,100643.00
2023-04-10T15:54:36.070Z,100640.00
2023-04-10T15:57:04.232Z,100631.00
2023-04-10T15:59:33.203Z,100636.00
2023-04-10T16:02:01.097Z,100621.00
2023-04-10T16:04:29.244Z,100626.00
2023-04-10T16:06:57.272Z,100606.00
2023-04-10T16:09:28.455Z,100609.00
2023-04-10T16:11:58.046Z,100593.00
2023-04-10T16:14:27.416Z,100608.00
2023-04-10T16:16:55.141Z,100595.00
2023-04-10T16:19:25.355Z,100601.00
2023-04-10T16:21:53.200Z,100598.00
2023-04-10T16:24:21.005Z,100588.00
2023-04-10T16:26:50.271Z,100581.00
2023-04-10T16:29:19.827Z,100592.00
2023-04-10T16:31:48.142Z,100570.00
2023-04-10T16:34:15.997Z,100558.00
2023-04-10T16:36:43.802Z,100559.00
2023-04-10T16:39:11.629Z,100556.00
2023-04-10T16:41:39.317Z,100541.00
2023-04-10T16:44:08.514Z,100546.00
2023-04-10T16:46:37.081Z,100542.00
2023-04-10T16:49:05.064Z,100517.00
2023-04-10T16:51:32.790Z,100533.00
2023-04-10T16:54:00.530Z,100524.00
2023-04-10T16:56:28.387Z,100532.00
2023-04-10T16:58:57.399Z,100515.00
2023-04-10T17:01:27.184Z,100523.00
2023-04-10T17:03:55.565Z,100519.00
2023-04-10T17:06:23.432Z,100512.00
2023-04-10T17:08:51.196Z,100507.00
2023-04-10T17:11:18.973Z,100488.00
2023-04-10T17:13:47.158Z,100506.00
2023-04-10T17:16:15.487Z,100482.00
2023-04-10T17:18:45.063Z,100492.00
2023-04-10T17:21:13.165Z,100486.00
2023-04-10T17:23:41.259Z,100486.00
2023-04-10T17:26:14.061Z,100485.00
2023-04-10T17:28:44.328Z,100481.00
2023-04-10T17:31:12.167Z,100482.00
2023-04-10T17:33:41.724Z,100476.00
2023-04-10T17:36:12.262Z,100473.00
2023-04-10T17:38:41.114Z,100475.00
2023-04-10T17:41:09.624Z,100471.00
2023-04-10T17:43:37.424Z,100460.00
2023-04-10T17:46:05.350Z,100465.00
2023-04-10T17:48:34.423Z,100464.00
2023-04-10T17:51:06.228Z,100470.00
2023-04-10T17:53:35.872Z,100459.00
2023-04-10T17:56:03.770Z,100462.00
2023-04-10T17:58:31.804Z,100459.00
2023-04-10T18:00:59.541Z,100458.00
2023-04-10T18:03:27.354Z,100448.00
2023-04-10T18:05:55.080Z,100443.00
2023-04-10T18:08:22.856Z,100444.00
2023-04-10T18:10:51.941Z,100442.00
2023-04-10T18:13:19.608Z,100436.00
2023-04-10T18:15:47.360Z,100424.00
2023-04-10T18:18:15.027Z,100427.00
2023-04-10T18:20:42.708Z,100426.00
2023-04-10T18:23:10.443Z,100420.00
2023-04-10T18:25:38.270Z,100409.00
2023-04-10T18:30:40.090Z,100410.00
2023-04-10T18:33:11.110Z,100408.00
2023-04-10T18:35:39.514Z,100408.00
2023-04-10T18:38:07.520Z,100397.00
2023-04-10T18:40:36.809Z,100399.00
2023-04-10T18:43:04.784Z,100398.00
2023-04-10T18:45:34.928Z,100380.00
2023-04-10T18:48:02.753Z,100365.00
2023-04-10T18:50:31.423Z,100369.00
2023-04-10T18:52:59.239Z,100373.00
2023-04-10T18:55:27.048Z,100375.00
2023-04-10T18:57:54.775Z,100368.00
2023-04-10T19:00:22.928Z,100370.00
2023-04-10T19:02:52.147Z,100371.00
2023-04-10T19:05:19.973Z,100358.00
2023-04-10T19:08:00.622Z,100361.00
2023-04-10T19:10:31.223Z,100356.00
2023-04-10T19:12:58.970Z,100360.00
2023-04-10T19:15:26.709Z,100360.00
2023-04-10T19:17:55.942Z,100348.00
2023-04-10T19:20:50.393Z,100338.00
2023-04-10T19:23:12.799Z,100345.00
2023-04-10T19:25:40.893Z,100355.00
2023-04-10T19:28:08.610Z,100351.00
2023-04-10T19:30:37.094Z,100345.00
2023-04-10T19:33:07.047Z,100350.00
2023-04-10T19:35:34.756Z,100337.00
2023-04-10T19:38:02.462Z,100336.00
2023-04-10T19:40:31.077Z,100337.00
2023-04-10T19:43:00.409Z,100335.00
2023-04-10T19:45:29.201Z,100320.00
2023-04-10T19:47:57.717Z,100324.00
2023-04-10T19:50:29.198Z,100314.00
2023-04-10T19:52:57.167Z,100315.00
2023-04-10T19:55:25.052Z,100309.00
2023-04-10T19:57:52.963Z,100318.00
2023-04-10T20:00:21.054Z,100309.00
2023-04-10T20:02:48.948Z,100307.00
2023-04-10T20:05:16.863Z,100296.00
2023-04-10T20:07:46.070Z,100298.00
2023-04-10T20:10:13.753Z,100289.00
2023-04-10T20:12:42.041Z,100288.00
2023-04-10T20:15:10.916Z,100279.00
2023-04-10T20:17:39.107Z,100270.00
2023-04-10T20:20:08.035Z,100281.00
2023-04-10T20:22:35.786Z,100275.00
2023-04-10T20:25:05.210Z,100251.00
2023-04-10T20:27:32.973Z,100244.00
2023-04-10T20:30:00.768Z,100242.00
2023-04-10T20:32:28.459Z,100248.00
2023-04-10T20:34:56.197Z,100247.00
2023-04-10T20:37:23.973Z,100247.00
2023-04-10T20:39:51.858Z,100242.00
2023-04-10T20:42:20.947Z,100217.00
2023-04-10T20:44:48.785Z,100237.00
2023-04-10T20:47:16.678Z,100228.00
2023-04-10T20:49:44.541Z,100229.00
2023-04-10T20:52:12.195Z,100223.00
2023-04-10T20:54:39.927Z,100221.00
2023-04-10T20:57:07.631Z,100200.00
2023-04-10T20:59:37.068Z,100204.00
2023-04-10T21:02:04.851Z,100199.00
2023-04-10T21:04:32.881Z,100195.00
2023-04-10T21:07:00.668Z,100182.00
2023-04-10T21:09:28.348Z,100187.00
2023-04-10T21:11:57.030Z,100187.00
2023-04-10T21:14:24.818Z,100181.00
2023-04-10T21:16:53.972Z,100186.00
2023-04-10T21:19:21.870Z,100183.00
2023-04-10T21:21:49.534Z,100165.00
2023-04-10T21:24:17.221Z,100166.00
2023-04-10T21:26:45.011Z,100166.00
2023-04-10T21:29:12.783Z,100164.00
2023-04-10T21:31:40.638Z,100133.00
2023-04-10T21:34:09.721Z,100150.00
2023-04-10T21:36:37.405Z,100146.00
2023-04-10T21:39:08.884Z,100136.00
2023-04-10T21:41:36.751Z,100146.00
2023-04-10T21:44:04.563Z,100128.00
2023-04-10T21:46:32.674Z,100129.00
2023-04-10T21:49:01.052Z,100139.00
2023-04-10T21:51:31.038Z,100142.00
2023-04-10T21:53:58.776Z,100145.00
2023-04-10T21:56:26.477Z,100145.00
2023-04-10T21:58:54.490Z,100137.00
2023-04-10T22:01:22.636Z,100144.00
2023-04-10T22:03:50.848Z,100165.00
2023-04-10T22:06:18.675Z,100167.00
2023-04-10T22:08:47.704Z,100181.00
2023-04-10T22:11:15.377Z,100194.00
2023-04-10T22:13:43.074Z,100179.00
2023-04-10T22:16:10.941Z,100193.00
2023-04-10T22:18:38.662Z,100188.00
2023-04-10T22:21:06.644Z,100195.00
2023-04-10T22:23:34.320Z,100182.00
2023-04-10T22:26:03.473Z,100181.00
2023-04-10T22:28:31.314Z,100173.00
2023-04-10T22:30:59.046Z,100175.00
2023-04-10T22:33:26.799Z,100161.00
2023-04-10T22:35:54.493Z,100161.00
2023-04-10T22:38:22.259Z,100158.00
2023-04-10T22:40:49.940Z,100165.00
2023-04-10T22:43:18.996Z,100143.00
2023-04-10T22:45:46.691Z,100156.00
2023-04-10T22:48:14.433Z,100157.00
2023-04-10T22:50:42.250Z,100171.00
2023-04-10T22:53:11.077Z,100150.00
2023-04-10T22:55:39.215Z,100147.00
2023-04-10T22:58:07.061Z,100146.00
2023-04-10T23:00:36.180Z,100147.00
2023-04-10T23:03:03.985Z,100159.00
2023-04-10T23:05:32.939Z,100157.00
2023-04-10T23:08:00.798Z,100166.00
2023-04-10T23:10:28.491Z,100158.00
2023-04-10T23:12:56.171Z,100166.00
2023-04-10T23:15:23.879Z,100151.00
2023-04-10T23:17:53.027Z,100164.00
2023-04-10T23:20:20.928Z,100154.00
2023-04-10T23:22:48.601Z,100156.00
2023-04-10T23:25:16.457Z,100161.00
2023-04-10T23:27:44.246Z,100150.00
2023-04-10T23:30:12.492Z,100148.00
2023-04-10T23:32:40.322Z,100153.00
2023-04-10T23:35:10.526Z,100145.00
2023-04-10T23:37:38.251Z,100147.00
2023-04-10T23:40:06.871Z,100152.00
2023-04-10T23:42:35.024Z,100155.00
2023-04-10T23:45:02.708Z,100143.00
2023-04-10T23:47:30.457Z,100145.00
2023-04-10T23:49:58.653Z,100143.00
2023-04-10T23:52:27.788Z,100132.00
2023-04-10T23:54:56.633Z,100120.00
2023-04-10T23:57:24.970Z,100122.00
2023-04-10T23:59:52.799Z,100135.00
